createdAt,value
2023-02-23T00:02:25.380Z,96619.00
2023-02-23T00:07:46.192Z,96615.66
2023-02-23T00:13:06.829Z,96610.84
2023-02-23T00:18:30.239Z,96611.94
2023-02-23T00:24:02.721Z,96602.88
2023-02-23T00:29:24.955Z,96603.16
2023-02-23T00:34:51.430Z,96604.69
2023-02-23T00:40:14.724Z,96597.22
2023-02-23T00:45:36.759Z,96597.91
2023-02-23T00:51:04.164Z,96599.56
2023-02-23T00:56:25.609Z,96603.47
2023-02-23T01:01:46.297Z,96600.53
2023-02-23T01:07:07.046Z,96599.69
2023-02-23T01:12:27.767Z,96604.44
2023-02-23T01:17:48.584Z,96601.50
2023-02-23T01:23:14.486Z,96598.63
2023-02-23T01:28:35.346Z,96595.47
2023-02-23T01:34:01.813Z,96590.84
2023-02-23T01:39:24.411Z,96587.69
2023-02-23T01:44:44.889Z,96592.09
2023-02-23T01:50:06.582Z,96579.03
2023-02-23T01:55:29.307Z,96576.56
2023-02-23T02:01:03.083Z,96580.78
2023-02-23T02:06:29.479Z,96566.66
2023-02-23T02:11:54.207Z,96561.06
2023-02-23T02:18:01.017Z,96555.78
2023-02-23T02:23:40.422Z,96555.88
2023-02-23T02:29:31.356Z,96547.94
2023-02-23T02:35:04.153Z,96544.84
2023-02-23T02:40:56.552Z,96543.19
2023-02-23T02:46:23.700Z,96541.31
2023-02-23T02:52:00.946Z,96548.47
2023-02-23T02:57:25.813Z,96547.09
2023-02-23T03:03:05.399Z,96555.97
2023-02-23T03:09:06.706Z,96549.03
2023-02-23T03:15:02.470Z,96553.00
2023-02-23T03:21:06.477Z,96553.47
2023-02-23T03:26:54.505Z,96550.03
2023-02-23T03:32:56.763Z,96553.91
2023-02-23T03:38:36.278Z,96563.56
2023-02-23T03:44:21.829Z,96562.16
2023-02-23T03:50:02.269Z,96566.97
2023-02-23T03:55:48.106Z,96562.84
2023-02-23T04:01:30.013Z,96559.34
2023-02-23T04:07:11.392Z,96557.22
2023-02-23T04:12:50.753Z,96567.63
2023-02-23T04:18:14.462Z,96568.53
2023-02-23T04:23:37.582Z,96565.22
2023-02-23T04:28:58.733Z,96565.94
2023-02-23T04:34:19.550Z,96571.72
2023-02-23T04:39:40.514Z,96571.09
2023-02-23T04:45:01.606Z,96567.81
2023-02-23T04:50:22.437Z,96575.84
2023-02-23T04:55:43.475Z,96564.16
2023-02-23T05:01:06.694Z,96571.25
2023-02-23T05:06:27.671Z,96569.25
2023-02-23T05:11:48.333Z,96574.19
2023-02-23T05:17:09.094Z,96573.16
2023-02-23T05:22:29.909Z,96572.81
2023-02-23T05:27:50.954Z,96578.22
2023-02-23T05:33:15.106Z,96571.63
2023-02-23T05:38:36.991Z,96583.88
2023-02-23T05:43:57.684Z,96582.38
2023-02-23T05:49:18.194Z,96589.19
2023-02-23T05:54:38.920Z,96591.53
2023-02-23T05:59:59.492Z,96586.47
2023-02-23T06:05:20.212Z,96578.22
2023-02-23T06:10:40.881Z,96587.06
2023-02-23T06:16:01.937Z,96591.69
2023-02-23T06:21:23.019Z,96583.91
2023-02-23T06:26:44.555Z,96590.38
2023-02-23T06:32:06.162Z,96590.53
2023-02-23T06:37:28.223Z,96593.38
2023-02-23T06:42:49.001Z,96596.91
2023-02-23T06:48:09.868Z,96604.16
2023-02-23T06:53:30.876Z,96611.56
2023-02-23T06:58:51.873Z,96616.84
2023-02-23T07:04:14.299Z,96614.94
2023-02-23T07:09:36.835Z,96615.06
2023-02-23T07:14:57.808Z,96614.38
2023-02-23T07:20:19.765Z,96617.44
2023-02-23T07:25:40.638Z,96616.16
2023-02-23T07:31:01.367Z,96610.63
2023-02-23T07:36:23.485Z,96612.88
2023-02-23T07:41:44.401Z,96616.16
2023-02-23T07:47:13.566Z,96615.34
2023-02-23T07:52:34.317Z,96610.50
2023-02-23T07:57:54.946Z,96612.28
2023-02-23T08:03:15.637Z,96615.81
2023-02-23T08:08:36.292Z,96612.03
2023-02-23T08:14:00.680Z,96620.00
2023-02-23T08:19:24.615Z,96615.09
2023-02-23T08:24:45.507Z,96606.28
2023-02-23T08:30:09.806Z,96599.78
2023-02-23T08:35:31.206Z,96602.00
2023-02-23T08:40:52.056Z,96592.25
2023-02-23T08:46:13.325Z,96599.72
2023-02-23T08:51:35.062Z,96606.38
2023-02-23T08:56:58.110Z,96593.44
2023-02-23T09:02:19.195Z,96599.06
2023-02-23T09:07:42.105Z,96600.56
2023-02-23T09:13:03.010Z,96601.03
2023-02-23T09:18:24.173Z,96603.03
2023-02-23T09:23:49.800Z,96605.38
2023-02-23T09:29:10.630Z,96608.72
2023-02-23T09:34:32.392Z,96605.31
2023-02-23T09:39:53.330Z,96611.56
2023-02-23T09:45:17.072Z,96603.81
2023-02-23T09:50:42.096Z,96603.69
2023-02-23T09:56:09.486Z,96600.69
2023-02-23T10:01:48.878Z,96599.22
2023-02-23T10:07:18.918Z,96602.50
2023-02-23T10:12:57.315Z,96606.28
2023-02-23T10:18:17.850Z,96596.69
2023-02-23T10:23:45.623Z,96595.06
2023-02-23T10:29:20.947Z,96598.91
2023-02-23T10:34:43.144Z,96587.66
2023-02-23T10:40:06.055Z,96583.56
2023-02-23T10:45:29.758Z,96583.16
2023-02-23T10:50:53.803Z,96579.31
2023-02-23T10:56:17.682Z,96576.03
2023-02-23T11:02:01.021Z,96574.34
2023-02-23T11:07:31.339Z,96571.00
2023-02-23T11:12:52.061Z,96560.06
2023-02-23T11:18:20.787Z,96549.91
2023-02-23T11:23:42.063Z,96549.22
2023-02-23T11:29:12.480Z,96552.91
2023-02-23T11:34:35.509Z,96553.84
2023-02-23T11:40:00.518Z,96540.22
2023-02-23T11:45:24.318Z,96528.41
2023-02-23T11:50:48.581Z,96528.28
2023-02-23T11:56:13.696Z,96513.94
2023-02-23T12:01:46.958Z,96509.97
2023-02-23T12:07:46.408Z,96513.09
2023-02-23T12:13:25.418Z,96499.41
2023-02-23T12:19:00.801Z,96503.09
2023-02-23T12:24:49.166Z,96501.09
2023-02-23T12:30:27.719Z,96499.00
2023-02-23T12:36:29.891Z,96497.81
2023-02-23T12:42:17.696Z,96493.72
2023-02-23T12:47:51.967Z,96489.31
2023-02-23T12:53:18.080Z,96485.56
2023-02-23T12:58:59.762Z,96485.56
2023-02-23T13:04:48.540Z,96472.44
2023-02-23T13:10:35.625Z,96472.31
2023-02-23T13:16:08.854Z,96464.41
2023-02-23T13:22:04.911Z,96467.34
2023-02-23T13:27:38.916Z,96462.81
2023-02-23T13:33:08.358Z,96453.25
2023-02-23T13:38:39.300Z,96448.19
2023-02-23T13:44:09.969Z,96456.66
2023-02-23T13:49:58.115Z,96446.84
2023-02-23T13:55:40.044Z,96449.53
2023-02-23T14:01:20.530Z,96451.09
2023-02-23T14:06:56.685Z,96450.59
2023-02-23T14:12:24.924Z,96447.97
2023-02-23T14:18:03.665Z,96451.22
2023-02-23T14:23:24.426Z,96455.59
2023-02-23T14:29:20.807Z,96455.31
2023-02-23T14:34:51.618Z,96453.81
2023-02-23T14:40:21.094Z,96447.78
2023-02-23T14:45:42.027Z,96457.66
2023-02-23T14:51:23.380Z,96447.47
2023-02-23T14:56:49.453Z,96439.19
2023-02-23T15:02:16.974Z,96445.03
2023-02-23T15:07:41.173Z,96445.25
2023-02-23T15:13:10.537Z,96446.63
2023-02-23T15:18:39.371Z,96434.59
2023-02-23T15:24:05.364Z,96441.00
2023-02-23T15:29:32.461Z,96442.19
2023-02-23T15:34:56.014Z,96437.72
2023-02-23T15:40:20.814Z,96444.19
2023-02-23T15:46:06.106Z,96443.31
2023-02-23T15:51:50.819Z,96435.78
2023-02-23T15:57:21.396Z,96435.50
2023-02-23T16:02:44.661Z,96435.69
2023-02-23T16:08:22.729Z,96426.28
2023-02-23T16:13:45.921Z,96432.75
2023-02-23T16:19:06.730Z,96428.03
2023-02-23T16:24:29.241Z,96418.63
2023-02-23T16:30:00.379Z,96421.34
2023-02-23T16:35:21.080Z,96421.47
2023-02-23T16:40:42.312Z,96418.31
2023-02-23T16:46:03.143Z,96427.03
2023-02-23T16:51:24.686Z,96426.25
2023-02-23T16:56:47.122Z,96432.59
2023-02-23T17:02:13.879Z,96441.81
2023-02-23T17:07:34.708Z,96443.94
2023-02-23T17:13:03.210Z,96449.66
2023-02-23T17:18:27.014Z,96445.69
2023-02-23T17:23:51.172Z,96447.00
2023-02-23T17:29:11.868Z,96448.69
2023-02-23T17:34:32.723Z,96449.31
2023-02-23T17:39:53.411Z,96447.13
2023-02-23T17:45:14.094Z,96446.75
2023-02-23T17:50:34.702Z,96442.25
2023-02-23T17:55:55.981Z,96439.09
2023-02-23T18:01:18.163Z,96431.31
2023-02-23T18:06:38.928Z,96434.22
2023-02-23T18:11:59.692Z,96433.13
2023-02-23T18:17:20.455Z,96425.16
2023-02-23T18:22:42.653Z,96427.94
2023-02-23T18:28:03.489Z,96423.44
2023-02-23T18:33:24.458Z,96420.03
2023-02-23T18:38:45.969Z,96429.16
2023-02-23T18:44:08.876Z,96424.28
2023-02-23T18:49:29.582Z,96432.72
2023-02-23T18:54:50.632Z,96426.69
2023-02-23T19:00:14.544Z,96425.91
2023-02-23T19:05:37.591Z,96430.56
2023-02-23T19:10:58.335Z,96434.28
2023-02-23T19:16:20.033Z,96430.06
2023-02-23T19:21:41.039Z,96434.34
2023-02-23T19:27:02.023Z,96431.75
2023-02-23T19:32:23.232Z,96420.22
2023-02-23T19:37:49.177Z,96414.06
2023-02-23T19:43:11.900Z,96417.50
2023-02-23T19:48:33.517Z,96413.81
2023-02-23T19:53:57.200Z,96418.31
2023-02-23T19:59:18.308Z,96413.63
2023-02-23T20:04:39.171Z,96406.63
2023-02-23T20:10:00.159Z,96410.66
2023-02-23T20:15:20.773Z,96404.25
2023-02-23T20:20:42.010Z,96396.44
2023-02-23T20:26:07.374Z,96389.16
2023-02-23T20:31:32.234Z,96385.31
2023-02-23T20:36:55.272Z,96390.78
2023-02-23T20:42:16.174Z,96391.09
2023-02-23T20:47:38.130Z,96385.63
2023-02-23T20:53:01.181Z,96381.66
2023-02-23T20:58:25.730Z,96373.31
2023-02-23T21:03:46.747Z,96373.81
2023-02-23T21:09:12.826Z,96371.38
2023-02-23T21:14:35.474Z,96366.03
2023-02-23T21:19:56.699Z,96360.16
2023-02-23T21:25:19.716Z,96357.81
2023-02-23T21:30:40.516Z,96348.91
2023-02-23T21:36:01.156Z,96344.00
2023-02-23T21:41:22.397Z,96346.06
2023-02-23T21:46:43.221Z,96339.63
2023-02-23T21:52:04.440Z,96341.81
2023-02-23T21:57:28.308Z,96329.94
2023-02-23T22:02:51.384Z,96334.72
2023-02-23T22:08:15.872Z,96329.53
2023-02-23T22:13:37.214Z,96327.47
2023-02-23T22:18:58.461Z,96327.88
2023-02-23T22:24:19.120Z,96333.34
2023-02-23T22:29:39.930Z,96331.84
2023-02-23T22:35:01.208Z,96328.56
2023-02-23T22:40:21.969Z,96323.53
2023-02-23T22:45:43.987Z,96310.09
2023-02-23T22:51:05.493Z,96311.06
2023-02-23T22:56:26.219Z,96306.81
2023-02-23T23:01:49.022Z,96302.59
2023-02-23T23:07:10.708Z,96299.44
2023-02-23T23:12:34.307Z,96296.97
2023-02-23T23:17:54.917Z,96293.25
2023-02-23T23:23:17.233Z,96291.38
2023-02-23T23:28:40.432Z,96288.75
2023-02-23T23:34:09.334Z,96283.69
2023-02-23T23:39:30.264Z,96272.91
2023-02-23T23:44:50.901Z,96267.66
2023-02-23T23:50:14.120Z,96264.22
2023-02-23T23:55:36.217Z,96258.63
